Time;durP1;ratioP1;P1;durP2;ratioP2;P2;SDS_P1;SDS_P2;PMS_P1;PMS_P2;Temp;Humidity;BMP_temperature;BMP_pressure;BME280_temperature;BME280_humidity;BME280_pressure;Samples;Min_cycle;Max_cycle;Signal;HPM_P1;HPM_P2
2023/09/23 00:01:32;;;;;;;27.40;25.00;;;;;;;10.19;100.00;100643.91;5030202;28;20031;-82
2023/09/23 00:03:57;;;;;;;27.98;25.60;;;;;;;10.16;100.00;100654.66;5029105;28;20039;-81
2023/09/23 00:06:23;;;;;;;27.67;25.38;;;;;;;10.23;100.00;100650.63;5030524;28;20373;-81
2023/09/23 00:08:49;;;;;;;26.65;24.48;;;;;;;10.18;100.00;100652.75;5044543;28;20456;-82
2023/09/23 00:11:15;;;;;;;27.48;25.17;;;;;;;10.18;100.00;100658.00;5030222;28;20148;-82
2023/09/23 00:13:40;;;;;;;27.25;24.95;;;;;;;10.21;100.00;100663.88;5030127;28;20112;-81
2023/09/23 00:16:08;;;;;;;26.13;23.92;;;;;;;10.21;100.00;100663.06;5030394;28;20108;-82
2023/09/23 00:18:33;;;;;;;27.48;24.70;;;;;;;10.22;100.00;100659.47;5030072;28;20048;-82
2023/09/23 00:20:59;;;;;;;27.90;25.30;;;;;;;10.19;100.00;100657.03;5030425;28;20025;-82
2023/09/23 00:23:24;;;;;;;26.33;23.92;;;;;;;10.23;100.00;100655.88;5029926;28;20536;-83
2023/09/23 00:25:51;;;;;;;27.15;24.33;;;;;;;10.19;100.00;100660.50;5028333;28;20124;-82
2023/09/23 00:28:17;;;;;;;25.58;23.10;;;;;;;10.19;100.00;100659.66;5024581;28;20056;-81
2023/09/23 00:30:45;;;;;;;26.83;24.40;;;;;;;10.22;100.00;100656.84;5030471;28;20057;-82
2023/09/23 00:33:14;;;;;;;24.88;22.67;;;;;;;10.22;100.00;100669.97;5028529;28;20103;-82
2023/09/23 00:35:41;;;;;;;25.30;22.95;;;;;;;10.21;100.00;100670.94;5027039;28;20049;-81
2023/09/23 00:38:06;;;;;;;24.55;22.25;;;;;;;10.24;100.00;100673.34;5025988;28;20013;-81
2023/09/23 00:40:32;;;;;;;23.30;21.20;;;;;;;10.28;100.00;100669.53;5028722;28;20037;-82
2023/09/23 00:43:16;;;;;;;25.92;20.88;;;;;;;10.21;100.00;100670.94;5029325;28;20482;-82
2023/09/23 00:45:47;;;;;;;22.50;19.67;;;;;;;10.25;100.00;100685.53;5030546;28;20044;-81
2023/09/23 00:48:20;;;;;;;21.95;19.90;;;;;;;10.27;100.00;100689.72;5028588;28;20125;-81
2023/09/23 00:50:47;;;;;;;22.58;20.45;;;;;;;10.25;100.00;100680.28;5029343;28;20147;-81
2023/09/23 00:53:13;;;;;;;22.42;20.08;;;;;;;10.25;100.00;100683.75;5027917;28;20029;-82
2023/09/23 00:55:52;;;;;;;20.63;18.42;;;;;;;10.24;100.00;100675.97;5029106;28;20099;-82
2023/09/23 00:58:24;;;;;;;19.80;17.65;;;;;;;10.23;100.00;100676.91;5029260;28;20018;-82
2023/09/23 01:00:51;;;;;;;20.80;18.70;;;;;;;10.23;100.00;100687.44;5029004;28;20103;-82
2023/09/23 01:03:21;;;;;;;20.13;18.05;;;;;;;10.21;100.00;100682.28;5031997;28;20041;-82
2023/09/23 01:05:48;;;;;;;22.05;17.35;;;;;;;10.23;100.00;100690.91;5033170;28;20075;-82
2023/09/23 01:08:20;;;;;;;23.05;16.25;;;;;;;10.24;100.00;100700.47;5033039;28;20056;-82
2023/09/23 01:10:48;;;;;;;18.35;16.52;;;;;;;10.26;100.00;100697.72;5048827;28;20490;-82
2023/09/23 01:13:14;;;;;;;17.73;15.95;;;;;;;10.22;100.00;100691.84;5032978;28;20025;-82
2023/09/23 01:15:40;;;;;;;19.65;17.55;;;;;;;10.24;100.00;100694.38;5034345;28;20021;-82
2023/09/23 01:18:07;;;;;;;19.73;16.73;;;;;;;10.27;100.00;100694.97;5036125;28;20384;-83
2023/09/23 01:20:33;;;;;;;18.52;16.42;;;;;;;10.30;100.00;100710.53;5015197;28;20026;-81
2023/09/23 01:22:58;;;;;;;18.15;15.90;;;;;;;10.29;100.00;100705.38;5017747;28;20478;-82
2023/09/23 01:25:25;;;;;;;17.50;15.13;;;;;;;10.31;100.00;100709.56;5032078;28;20032;-83
2023/09/23 01:27:51;;;;;;;17.40;14.57;;;;;;;10.33;100.00;100712.09;5033602;28;20032;-83
2023/09/23 01:30:16;;;;;;;21.70;14.52;;;;;;;10.31;100.00;100712.19;5034310;28;20478;-82
2023/09/23 01:32:41;;;;;;;18.77;13.85;;;;;;;10.33;100.00;100717.34;5033753;28;20096;-82
2023/09/23 01:35:11;;;;;;;18.30;13.48;;;;;;;10.35;100.00;100718.91;5030880;28;20125;-82
2023/09/23 01:37:36;;;;;;;14.02;12.13;;;;;;;10.34;100.00;100717.22;5029764;28;20021;-83
2023/09/23 01:40:05;;;;;;;17.48;13.10;;;;;;;10.36;100.00;100722.38;5033348;28;20448;-82
2023/09/23 01:42:32;;;;;;;15.25;11.82;;;;;;;10.35;100.00;100712.81;5031397;28;20080;-83
2023/09/23 01:44:57;;;;;;;18.45;12.02;;;;;;;10.40;100.00;100725.59;5033075;28;20051;-82
2023/09/23 01:47:23;;;;;;;19.40;11.82;;;;;;;10.43;100.00;100728.03;5030856;28;20030;-83
2023/09/23 01:49:51;;;;;;;15.00;11.73;;;;;;;10.40;100.00;100731.69;5031438;28;20036;-82
2023/09/23 01:52:17;;;;;;;17.45;10.95;;;;;;;10.41;100.00;100717.63;5033125;28;20025;-83
2023/09/23 01:54:46;;;;;;;13.27;10.65;;;;;;;10.40;100.00;100726.44;5027053;28;20029;-82
2023/09/23 01:57:16;;;;;;;15.93;10.43;;;;;;;10.42;100.00;100727.19;5029965;28;20493;-83
2023/09/23 01:59:45;;;;;;;11.98;10.13;;;;;;;10.39;100.00;100732.66;5031505;28;20515;-81
2023/09/23 02:02:10;;;;;;;14.35;9.98;;;;;;;10.38;100.00;100733.59;5047611;28;20024;-80
2023/09/23 02:04:37;;;;;;;13.73;8.88;;;;;;;10.35;100.00;100737.31;5032274;28;20029;-81
2023/09/23 02:07:07;;;;;;;15.43;9.23;;;;;;;10.33;100.00;100735.75;5032675;28;20025;-81
2023/09/23 02:09:37;;;;;;;16.20;8.90;;;;;;;10.36;100.00;100740.78;5022827;28;20026;-81
2023/09/23 02:12:06;;;;;;;10.48;8.52;;;;;;;10.36;100.00;100746.03;5027850;28;20032;-83
2023/09/23 02:14:31;;;;;;;13.45;8.48;;;;;;;10.33;100.00;100741.84;5031978;28;20112;-81
2023/09/23 02:16:57;;;;;;;10.18;8.30;;;;;;;10.33;100.00;100751.53;5031615;28;20589;-81
2023/09/23 02:19:27;;;;;;;12.50;7.63;;;;;;;10.29;100.00;100747.47;5031908;28;20040;-82
2023/09/23 02:21:53;;;;;;;12.13;7.80;;;;;;;10.27;100.00;100752.81;5032676;28;20030;-84
2023/09/23 02:24:18;;;;;;;19.85;7.78;;;;;;;10.26;100.00;100753.78;5030515;28;20044;-82
2023/09/23 02:26:47;;;;;;;12.15;7.22;;;;;;;10.27;100.00;100757.25;5028184;28;20018;-82
2023/09/23 02:29:16;;;;;;;15.20;7.65;;;;;;;10.27;100.00;100762.50;5036678;28;20149;-82
2023/09/23 02:31:46;;;;;;;15.95;7.40;;;;;;;10.27;100.00;100763.34;5031012;28;20108;-83
2023/09/23 02:34:16;;;;;;;13.85;7.03;;;;;;;10.23;100.00;100761.06;5032577;28;20673;-82
2023/09/23 02:36:46;;;;;;;11.55;7.05;;;;;;;10.22;100.00;100767.28;5032982;28;20021;-82
2023/09/23 02:39:15;;;;;;;15.25;7.10;;;;;;;10.23;100.00;100776.84;5032099;28;20440;-82
2023/09/23 02:41:45;;;;;;;12.00;7.05;;;;;;;10.20;100.00;100782.28;5032482;28;20032;-84
2023/09/23 02:44:18;;;;;;;12.07;6.97;;;;;;;10.20;100.00;100787.56;5030577;28;20026;-82
2023/09/23 02:46:48;;;;;;;12.20;6.78;;;;;;;10.18;100.00;100782.41;5028425;28;20100;-83
2023/09/23 02:49:16;;;;;;;9.77;6.75;;;;;;;10.18;100.00;100785.03;5032053;28;20049;-83
2023/09/23 02:51:42;;;;;;;12.23;6.78;;;;;;;10.17;100.00;100782.50;5031495;28;20117;-82
2023/09/23 02:54:11;;;;;;;15.45;7.22;;;;;;;10.16;100.00;100786.09;5032353;28;20037;-82
2023/09/23 02:56:36;;;;;;;8.63;6.63;;;;;;;10.15;100.00;100784.41;5032650;28;20031;-82
2023/09/23 02:59:13;;;;;;;16.60;7.05;;;;;;;10.15;100.00;100790.53;5030973;28;20108;-83
2023/09/23 03:01:39;;;;;;;9.68;6.35;;;;;;;10.15;100.00;100802.81;5033833;28;20028;-83
2023/09/23 03:04:16;;;;;;;10.73;6.78;;;;;;;10.14;100.00;100799.34;5013477;28;20669;-81
2023/09/23 03:06:55;;;;;;;11.40;6.40;;;;;;;10.14;100.00;100801.16;5013754;28;20497;-83
2023/09/23 03:09:23;;;;;;;8.50;6.05;;;;;;;10.14;100.00;100804.63;5012818;28;20386;-82
2023/09/23 03:11:53;;;;;;;14.45;6.45;;;;;;;10.14;100.00;100796.72;5025686;28;20057;-83
2023/09/23 03:14:23;;;;;;;12.13;6.38;;;;;;;10.12;100.00;100805.69;5032189;28;20422;-81
2023/09/23 03:16:51;;;;;;;13.43;6.57;;;;;;;10.12;100.00;100800.41;5030635;28;20393;-80
2023/09/23 03:19:24;;;;;;;11.50;5.95;;;;;;;10.12;100.00;100797.78;5024267;28;20021;-83
2023/09/23 03:21:50;;;;;;;12.88;6.03;;;;;;;10.11;100.00;100809.25;5012109;28;20030;-80
2023/09/23 03:24:16;;;;;;;13.70;5.85;;;;;;;10.10;100.00;100803.16;5025971;28;20375;-83
2023/09/23 03:26:46;;;;;;;9.85;6.28;;;;;;;10.09;100.00;100805.91;5034852;28;20021;-83
2023/09/23 03:29:13;;;;;;;11.88;6.20;;;;;;;10.11;100.00;100809.25;5038883;28;20017;-83
2023/09/23 03:31:39;;;;;;;10.98;5.82;;;;;;;10.10;100.00;100808.41;5035506;28;20032;-80
2023/09/23 03:34:05;;;;;;;9.95;5.90;;;;;;;10.08;100.00;100810.31;5030596;28;20184;-80
2023/09/23 03:36:31;;;;;;;8.57;6.05;;;;;;;10.05;100.00;100815.81;5029175;28;21096;-83
2023/09/23 03:39:00;;;;;;;13.02;5.65;;;;;;;10.08;100.00;100820.00;5036778;28;20029;-83
2023/09/23 03:41:27;;;;;;;10.43;5.55;;;;;;;10.05;100.00;100819.28;5032392;28;20393;-84
2023/09/23 03:43:53;;;;;;;12.95;6.32;;;;;;;10.07;100.00;100819.16;5032974;28;20029;-82
2023/09/23 03:46:18;;;;;;;10.27;6.13;;;;;;;10.07;100.00;100823.56;5032784;28;20047;-83
2023/09/23 03:48:43;;;;;;;10.50;5.57;;;;;;;10.05;100.00;100827.16;5033538;28;20045;-83
2023/09/23 03:51:09;;;;;;;10.38;5.90;;;;;;;10.03;100.00;100822.97;5032799;28;20123;-79
2023/09/23 03:53:36;;;;;;;13.27;6.53;;;;;;;10.01;100.00;100836.22;5032019;28;20033;-82
2023/09/23 03:56:01;;;;;;;14.50;6.50;;;;;;;10.02;100.00;100832.63;5031826;28;20167;-80
2023/09/23 03:58:27;;;;;;;14.02;6.55;;;;;;;10.03;100.00;100838.72;5030422;28;20029;-83
2023/09/23 04:00:57;;;;;;;10.90;6.30;;;;;;;10.02;100.00;100835.25;5030604;28;20159;-80
2023/09/23 04:03:23;;;;;;;11.40;6.20;;;;;;;10.04;100.00;100828.09;5029262;28;20025;-80
2023/09/23 04:05:56;;;;;;;12.85;5.93;;;;;;;10.07;100.00;100836.72;5029502;28;20033;-80
2023/09/23 04:08:22;;;;;;;15.30;6.93;;;;;;;10.09;100.00;100826.94;5029126;28;20106;-80
2023/09/23 04:10:47;;;;;;;11.05;6.65;;;;;;;10.11;100.00;100831.13;5027190;28;20108;-80
2023/09/23 04:13:14;;;;;;;13.30;6.30;;;;;;;10.12;100.00;100832.81;5016430;28;20160;-81
2023/09/23 04:15:40;;;;;;;13.75;6.65;;;;;;;10.11;100.00;100844.28;5025804;28;20036;-81
2023/09/23 04:18:06;;;;;;;10.15;6.30;;;;;;;10.12;100.00;100845.13;5028354;28;20018;-81
2023/09/23 04:20:32;;;;;;;13.73;6.07;;;;;;;10.11;100.00;100848.69;5030690;28;20141;-81
2023/09/23 04:22:57;;;;;;;13.75;6.20;;;;;;;10.10;100.00;100854.91;5029599;28;20025;-80
2023/09/23 04:25:23;;;;;;;13.43;6.60;;;;;;;10.07;100.00;100855.97;5026480;28;20115;-82
2023/09/23 04:27:52;;;;;;;12.63;6.57;;;;;;;10.05;100.00;100857.88;5028916;28;20075;-81
2023/09/23 04:30:17;;;;;;;11.05;6.15;;;;;;;10.06;100.00;100875.31;5031467;28;20056;-80
2023/09/23 04:32:43;;;;;;;12.88;6.10;;;;;;;10.04;100.00;100872.78;5029889;28;20056;-81
2023/09/23 04:35:09;;;;;;;14.80;6.53;;;;;;;10.02;100.00;100869.44;5030497;28;20024;-82
2023/09/23 04:37:37;;;;;;;19.52;6.82;;;;;;;10.04;100.00;100872.78;5028385;28;20111;-82
2023/09/23 04:40:09;;;;;;;13.57;6.18;;;;;;;10.02;100.00;100873.84;5029392;28;20029;-81
2023/09/23 04:42:35;;;;;;;11.93;6.57;;;;;;;10.01;100.00;100875.66;5030024;28;20835;-81
2023/09/23 04:45:01;;;;;;;10.15;6.30;;;;;;;10.00;100.00;100883.59;5031583;28;20028;-82
2023/09/23 04:47:26;;;;;;;12.63;6.40;;;;;;;9.99;100.00;100888.03;5022639;28;20500;-82
2023/09/23 04:49:53;;;;;;;15.77;6.75;;;;;;;9.99;100.00;100880.13;5028765;28;20072;-80
2023/09/23 04:52:19;;;;;;;11.75;6.55;;;;;;;9.97;100.00;100879.41;5029020;28;20070;-81
2023/09/23 04:54:44;;;;;;;11.80;6.30;;;;;;;9.94;100.00;100884.88;5028825;28;20029;-81
2023/09/23 04:57:09;;;;;;;8.95;6.28;;;;;;;9.95;100.00;100889.19;5029954;28;20024;-83
2023/09/23 04:59:35;;;;;;;15.23;7.13;;;;;;;9.93;100.00;100885.84;5030634;28;20038;-81
2023/09/23 05:02:01;;;;;;;9.82;6.30;;;;;;;9.91;100.00;100897.41;5023945;28;20693;-80
2023/09/23 05:04:26;;;;;;;13.63;6.82;;;;;;;9.89;100.00;100894.88;5010825;28;20451;-82
2023/09/23 05:06:52;;;;;;;15.55;7.10;;;;;;;9.89;100.00;100908.03;5027814;28;20018;-82
2023/09/23 05:09:17;;;;;;;12.25;6.80;;;;;;;9.89;100.00;100907.19;5028960;28;20040;-83
2023/09/23 05:11:43;;;;;;;14.65;6.70;;;;;;;9.84;100.00;100912.78;5029077;28;20022;-82
2023/09/23 05:14:08;;;;;;;11.02;6.82;;;;;;;9.86;100.00;100920.53;5027085;28;20813;-80
2023/09/23 05:16:34;;;;;;;11.50;6.60;;;;;;;9.84;100.00;100922.44;5028472;28;20274;-82
2023/09/23 05:18:59;;;;;;;13.73;7.13;;;;;;;9.84;100.00;100920.66;5029617;28;20033;-81
2023/09/23 05:21:25;;;;;;;15.77;7.28;;;;;;;9.82;100.00;100926.97;5012462;28;20029;-80
2023/09/23 05:23:51;;;;;;;12.50;6.90;;;;;;;9.84;100.00;100928.53;5009500;28;20394;-82
2023/09/23 05:26:16;;;;;;;14.93;7.05;;;;;;;9.82;100.00;100935.69;5022624;28;20017;-82
2023/09/23 05:28:44;;;;;;;13.07;7.70;;;;;;;9.80;100.00;100944.63;5021776;28;20040;-80
2023/09/23 05:31:09;;;;;;;12.00;7.35;;;;;;;9.80;100.00;100953.34;5028459;28;20029;-80
2023/09/23 05:33:34;;;;;;;11.18;7.07;;;;;;;9.79;100.00;100959.56;5029757;28;20033;-82
2023/09/23 05:36:00;;;;;;;11.55;7.53;;;;;;;9.78;100.00;100960.50;5027858;28;20033;-82
2023/09/23 05:38:26;;;;;;;12.13;7.25;;;;;;;9.79;100.00;100971.84;5028507;28;20025;-80
2023/09/23 05:40:51;;;;;;;15.07;8.30;;;;;;;9.80;100.00;100966.50;5026657;28;20034;-80
2023/09/23 05:43:18;;;;;;;12.57;6.93;;;;;;;9.78;100.00;100971.00;5028694;28;20061;-81
2023/09/23 05:45:43;;;;;;;13.90;7.07;;;;;;;9.79;100.00;100974.47;5029757;28;20088;-81
2023/09/23 05:48:11;;;;;;;10.38;6.95;;;;;;;9.76;100.00;100978.16;5028879;28;20505;-82
2023/09/23 05:50:37;;;;;;;13.82;7.38;;;;;;;9.79;100.00;100977.94;5032412;28;20108;-81
2023/09/23 05:53:03;;;;;;;16.42;7.47;;;;;;;9.80;100.00;100978.78;5033222;28;20115;-79
2023/09/23 05:55:31;;;;;;;14.48;8.00;;;;;;;9.80;100.00;100989.28;5031983;28;20469;-82
2023/09/23 05:57:56;;;;;;;9.32;7.07;;;;;;;9.80;100.00;100990.13;5032539;28;20021;-82
2023/09/23 06:00:22;;;;;;;16.58;7.38;;;;;;;9.83;100.00;100995.19;5032160;28;20728;-81
2023/09/23 06:02:47;;;;;;;14.07;7.00;;;;;;;9.83;100.00;100992.56;5032036;28;20108;-82
2023/09/23 06:05:14;;;;;;;13.30;7.47;;;;;;;9.85;100.00;100997.69;5030525;28;20048;-80
2023/09/23 06:07:40;;;;;;;16.17;7.53;;;;;;;9.87;100.00;101001.06;5029467;28;20034;-80
2023/09/23 06:10:08;;;;;;;11.82;7.35;;;;;;;9.88;100.00;101018.50;5033346;28;20021;-83
2023/09/23 06:12:34;;;;;;;11.38;7.13;;;;;;;9.90;100.00;101022.72;5032195;28;20116;-83
2023/09/23 06:15:01;;;;;;;12.15;6.82;;;;;;;9.91;100.00;101029.66;5029234;28;20513;-80
2023/09/23 06:17:32;;;;;;;14.90;7.32;;;;;;;9.91;100.00;101037.53;5029987;28;20397;-80
2023/09/23 06:19:58;;;;;;;12.60;7.60;;;;;;;9.94;100.00;101047.00;5031954;28;20029;-80
2023/09/23 06:22:24;;;;;;;13.27;7.55;;;;;;;9.98;100.00;101046.69;5032928;28;20029;-81
2023/09/23 06:24:50;;;;;;;11.43;7.45;;;;;;;10.02;100.00;101047.34;5031481;28;20074;-80
2023/09/23 06:27:16;;;;;;;13.43;7.95;;;;;;;10.04;100.00;101059.44;5032356;28;20021;-83
2023/09/23 06:29:42;;;;;;;12.85;7.43;;;;;;;10.07;100.00;101057.53;5024735;28;20028;-83
2023/09/23 06:32:07;;;;;;;15.68;7.70;;;;;;;10.13;100.00;101054.50;5030380;28;20034;-81
2023/09/23 06:34:33;;;;;;;12.18;7.63;;;;;;;10.19;100.00;101059.31;5030588;28;20116;-81
2023/09/23 06:36:59;;;;;;;13.77;8.05;;;;;;;10.19;100.00;101059.31;5029242;28;20025;-83
2023/09/23 06:39:24;;;;;;;10.30;7.30;;;;;;;10.25;100.00;101069.44;5030506;28;20493;-84
2023/09/23 06:41:50;;;;;;;12.38;7.35;;;;;;;10.27;100.00;101070.19;5027896;28;20038;-81
2023/09/23 06:44:15;;;;;;;9.60;7.45;;;;;;;10.31;100.00;101075.13;5026075;28;20041;-83
2023/09/23 06:46:41;;;;;;;8.88;6.95;;;;;;;10.38;100.00;101075.53;5029236;28;20116;-84
2023/09/23 06:49:06;;;;;;;10.18;7.15;;;;;;;10.41;100.00;101080.59;5031516;28;20522;-84
2023/09/23 06:51:32;;;;;;;14.18;7.70;;;;;;;10.45;100.00;101082.06;5045993;28;20033;-79
2023/09/23 06:53:57;;;;;;;13.23;7.72;;;;;;;10.51;100.00;101086.06;5030438;28;20025;-80
2023/09/23 06:56:23;;;;;;;10.20;7.35;;;;;;;10.57;100.00;101088.25;5031210;28;20485;-80
2023/09/23 06:58:48;;;;;;;11.07;7.15;;;;;;;10.66;100.00;101090.25;5030695;28;20421;-83
2023/09/23 07:01:14;;;;;;;13.38;7.68;;;;;;;10.73;100.00;101086.22;5028998;28;20029;-80
2023/09/23 07:03:39;;;;;;;14.45;7.95;;;;;;;10.81;100.00;101094.44;5031375;28;20071;-84
2023/09/23 07:06:05;;;;;;;13.25;7.63;;;;;;;10.88;100.00;101100.09;5027745;28;20052;-83
2023/09/23 07:08:30;;;;;;;16.50;7.30;;;;;;;10.91;100.00;101094.63;5028981;28;20103;-85
2023/09/23 07:10:56;;;;;;;12.48;7.80;;;;;;;10.98;100.00;101106.38;5029951;28;20509;-84
2023/09/23 07:13:21;;;;;;;13.77;8.07;;;;;;;11.05;100.00;101096.25;5028540;28;20036;-85
2023/09/23 07:15:46;;;;;;;12.68;7.72;;;;;;;11.14;100.00;101106.13;5030962;28;20037;-87
2023/09/23 07:18:14;;;;;;;10.52;6.85;;;;;;;11.15;100.00;101106.00;5028345;28;20381;-86
2023/09/23 07:20:42;;;;;;;15.50;7.55;;;;;;;11.23;100.00;101119.50;5030662;28;20043;-86
2023/09/23 07:23:08;;;;;;;10.15;6.85;;;;;;;11.30;100.00;101123.34;5032591;28;20032;-84
2023/09/23 07:25:42;;;;;;;11.20;7.03;;;;;;;11.40;100.00;101134.06;5032223;28;20026;-86
2023/09/23 07:28:08;;;;;;;9.00;6.53;;;;;;;11.43;100.00;101133.00;5030724;28;20026;-86
2023/09/23 07:30:34;;;;;;;11.40;6.38;;;;;;;11.48;100.00;101130.84;5031848;28;20021;-86
2023/09/23 07:33:00;;;;;;;11.98;6.75;;;;;;;11.56;100.00;101133.78;5028583;28;20026;-85
2023/09/23 07:35:31;;;;;;;12.40;6.75;;;;;;;11.65;100.00;101146.28;5028395;28;20033;-87
2023/09/23 07:37:56;;;;;;;11.57;6.68;;;;;;;11.75;100.00;101146.44;5030879;28;20505;-86
2023/09/23 07:40:22;;;;;;;10.15;6.57;;;;;;;11.87;100.00;101154.31;5030154;28;20103;-83
2023/09/23 07:42:47;;;;;;;12.38;6.53;;;;;;;11.96;100.00;101159.84;5029952;28;20038;-84
2023/09/23 07:45:13;;;;;;;11.52;6.40;;;;;;;12.07;100.00;101154.63;5046398;28;20036;-84
2023/09/23 07:47:48;;;;;;;11.65;6.75;;;;;;;12.20;100.00;101158.00;5029863;28;20076;-86
2023/09/23 07:50:14;;;;;;;13.02;5.68;;;;;;;12.32;100.00;101170.25;5023346;28;20108;-87
2023/09/23 07:52:40;;;;;;;11.13;5.55;;;;;;;12.42;100.00;101171.28;5029180;28;20029;-86
2023/09/23 07:55:05;;;;;;;10.73;5.90;;;;;;;12.48;100.00;101175.22;5021739;28;20117;-89
2023/09/23 07:57:32;;;;;;;11.98;5.93;;;;;;;12.62;100.00;101166.25;5046056;28;20037;-86
2023/09/23 07:59:58;;;;;;;10.30;5.53;;;;;;;12.80;100.00;101170.06;5030169;28;20021;-86
2023/09/23 08:02:23;;;;;;;11.05;5.25;;;;;;;12.83;100.00;101180.44;5029644;28;20062;-86
2023/09/23 08:04:49;;;;;;;10.60;5.20;;;;;;;12.83;100.00;101188.34;5030158;28;20512;-88
2023/09/23 08:07:14;;;;;;;8.43;5.03;;;;;;;12.86;100.00;101190.75;5032795;28;20478;-86
2023/09/23 08:09:40;;;;;;;9.52;5.10;;;;;;;12.95;100.00;101200.59;5024269;28;20026;-88
2023/09/23 08:12:06;;;;;;;9.45;4.75;;;;;;;13.01;100.00;101200.09;5029061;28;20477;-86
2023/09/23 08:14:31;;;;;;;8.85;4.82;;;;;;;13.13;100.00;101209.69;5028178;28;20036;-83
2023/09/23 08:16:57;;;;;;;10.20;4.80;;;;;;;13.18;100.00;101212.84;5028705;28;20056;-87
2023/09/23 08:19:23;;;;;;;7.68;4.60;;;;;;;13.29;100.00;101204.09;5029350;28;20025;-87
2023/09/23 08:21:48;;;;;;;8.75;4.90;;;;;;;13.32;100.00;101213.56;5028609;28;20022;-87
2023/09/23 08:24:14;;;;;;;7.82;4.75;;;;;;;13.51;100.00;101208.50;5022820;28;20501;-86
2023/09/23 08:26:39;;;;;;;10.20;4.47;;;;;;;13.54;100.00;101215.31;5029013;28;20032;-87
2023/09/23 08:29:05;;;;;;;8.25;4.30;;;;;;;13.70;100.00;101223.72;5029767;28;20034;-88
2023/09/23 08:31:30;;;;;;;9.23;4.10;;;;;;;13.71;100.00;101220.13;5027830;28;20072;-87
2023/09/23 08:33:56;;;;;;;9.90;4.57;;;;;;;13.76;100.00;101224.06;5029439;28;20531;-86
2023/09/23 08:36:22;;;;;;;7.00;3.88;;;;;;;13.82;100.00;101221.88;5029403;28;20029;-87
2023/09/23 08:38:47;;;;;;;9.48;3.85;;;;;;;13.75;100.00;101225.03;5032388;28;20029;-88
2023/09/23 08:41:16;;;;;;;9.70;3.60;;;;;;;13.86;100.00;101239.19;5025400;28;20079;-88
2023/09/23 08:43:42;;;;;;;7.18;3.47;;;;;;;14.02;100.00;101240.47;5028518;28;20111;-90
2023/09/23 08:46:11;;;;;;;10.13;4.07;;;;;;;14.09;100.00;101240.78;5030633;28;20493;-90
2023/09/23 08:48:38;;;;;;;8.32;3.50;;;;;;;14.30;100.00;101256.69;5029995;28;20107;-85
2023/09/23 08:51:06;;;;;;;6.03;2.97;;;;;;;14.40;100.00;101258.44;5028762;28;20025;-89
2023/09/23 08:53:38;;;;;;;6.45;3.00;;;;;;;14.59;100.00;101264.88;5028635;28;20569;-88
2023/09/23 08:56:06;;;;;;;8.07;2.90;;;;;;;14.57;100.00;101272.13;5027419;28;20126;-87
2023/09/23 08:58:32;;;;;;;8.77;2.80;;;;;;;14.55;100.00;101268.75;5017206;28;20029;-87
2023/09/23 09:00:57;;;;;;;6.72;2.83;;;;;;;14.47;100.00;101269.41;5008518;28;20025;-89
2023/09/23 09:03:23;;;;;;;5.70;2.50;;;;;;;14.37;100.00;101274.56;5008745;28;20018;-88
2023/09/23 09:05:48;;;;;;;7.10;3.03;;;;;;;14.35;100.00;101273.88;5009377;28;20030;-88
2023/09/23 09:08:18;;;;;;;7.97;2.55;;;;;;;14.41;100.00;101273.38;5010023;28;20084;-86
2023/09/23 09:10:44;;;;;;;8.20;3.05;;;;;;;14.48;100.00;101279.03;5010223;28;20022;-89
2023/09/23 09:13:10;;;;;;;9.50;3.20;;;;;;;14.73;100.00;101277.78;5009523;28;20042;-88
2023/09/23 09:15:36;;;;;;;7.97;2.80;;;;;;;15.01;100.00;101284.25;5025820;28;20083;-88
2023/09/23 09:18:02;;;;;;;7.68;2.75;;;;;;;15.12;100.00;101283.31;5044983;28;20079;-88
2023/09/23 09:20:28;;;;;;;5.88;2.35;;;;;;;15.09;100.00;101297.69;5029630;28;20061;-88
2023/09/23 09:22:53;;;;;;;8.55;2.88;;;;;;;14.95;100.00;101295.38;5045240;28;20095;-88
2023/09/23 09:25:22;;;;;;;5.90;2.22;;;;;;;14.86;100.00;101309.41;5033828;28;20029;-87
2023/09/23 09:27:48;;;;;;;6.45;2.75;;;;;;;14.75;100.00;101312.94;5048624;28;20026;-88
2023/09/23 09:30:14;;;;;;;8.77;2.83;;;;;;;14.64;100.00;101310.34;5033945;28;20385;-88
2023/09/23 09:32:44;;;;;;;6.20;2.60;;;;;;;14.55;100.00;101311.97;5031929;28;20021;-86
2023/09/23 09:35:20;;;;;;;8.50;2.70;;;;;;;14.55;100.00;101309.31;5033775;28;20083;-87
2023/09/23 09:37:48;;;;;;;8.98;2.97;;;;;;;14.47;100.00;101310.94;5033372;28;20026;-89
2023/09/23 09:40:21;;;;;;;7.03;2.60;;;;;;;14.49;100.00;101322.25;5033253;28;20482;-87
2023/09/23 09:42:59;;;;;;;7.72;2.28;;;;;;;14.49;100.00;101312.50;5033635;28;20029;-85
2023/09/23 09:45:27;;;;;;;9.43;2.80;;;;;;;14.41;100.00;101317.56;5034017;28;20022;-88
2023/09/23 09:47:55;;;;;;;7.60;2.47;;;;;;;14.45;100.00;101331.41;5035955;28;20029;-87
2023/09/23 09:50:23;;;;;;;7.45;2.30;;;;;;;14.44;100.00;101327.91;5036030;28;20079;-87
2023/09/23 09:52:49;;;;;;;6.47;2.42;;;;;;;14.41;100.00;101326.34;5034327;28;20052;-88
2023/09/23 09:55:18;;;;;;;9.50;2.97;;;;;;;14.46;100.00;101333.94;5033033;28;20477;-84
2023/09/23 09:57:45;;;;;;;9.48;3.08;;;;;;;14.51;100.00;101325.59;5032802;28;20245;-86
2023/09/23 10:00:28;;;;;;;6.95;2.35;;;;;;;14.54;100.00;101330.63;5032847;28;20021;-85
2023/09/23 10:03:05;;;;;;;7.13;2.45;;;;;;;14.59;100.00;101331.09;5032050;28;20067;-86
2023/09/23 10:05:32;;;;;;;7.78;2.28;;;;;;;14.61;100.00;101331.81;5023518;28;20432;-89
2023/09/23 10:07:59;;;;;;;6.55;2.60;;;;;;;14.65;100.00;101333.22;5012084;28;20037;-85
2023/09/23 10:10:31;;;;;;;9.20;2.78;;;;;;;14.79;100.00;101337.38;5012901;28;20030;-82
2023/09/23 10:13:07;;;;;;;9.98;2.55;;;;;;;15.02;100.00;101337.13;5012619;28;20037;-83
2023/09/23 10:15:40;;;;;;;9.07;2.72;;;;;;;15.30;100.00;101338.25;5012278;28;20075;-86
2023/09/23 10:18:13;;;;;;;8.32;2.63;;;;;;;15.46;100.00;101340.41;5012263;28;20018;-82
2023/09/23 10:20:51;;;;;;;6.80;2.38;;;;;;;15.47;100.00;101342.09;5021327;28;20030;-85
2023/09/23 10:23:19;;;;;;;7.40;2.33;;;;;;;15.57;100.00;101344.78;5012370;28;20034;-86
2023/09/23 10:25:47;;;;;;;8.32;2.60;;;;;;;15.64;100.00;101343.34;5012461;28;20029;-87
2023/09/23 10:28:28;;;;;;;5.47;2.20;;;;;;;15.61;100.00;101349.75;5013655;28;20026;-85
2023/09/23 10:30:59;;;;;;;11.88;2.50;;;;;;;15.53;100.00;101349.53;5031844;28;20025;-83
2023/09/23 10:33:26;;;;;;;7.75;2.65;;;;;;;15.48;100.00;101351.72;5032383;28;20056;-85
2023/09/23 10:35:58;;;;;;;7.57;2.67;;;;;;;15.37;100.00;101354.47;5029645;28;20026;-85
2023/09/23 10:38:30;;;;;;;5.70;2.63;;;;;;;15.40;100.00;101362.16;5021254;28;20033;-84
2023/09/23 10:40:56;;;;;;;7.13;2.42;;;;;;;15.43;100.00;101359.25;5012634;28;20025;-84
2023/09/23 10:43:22;;;;;;;6.45;2.67;;;;;;;15.43;100.00;101363.72;5010448;28;20041;-85
2023/09/23 10:45:48;;;;;;;6.43;2.90;;;;;;;15.52;100.00;101376.19;5012479;28;20029;-85
2023/09/23 10:48:17;;;;;;;9.27;2.40;;;;;;;15.58;100.00;101375.66;5012430;28;20044;-83
2023/09/23 10:50:44;;;;;;;7.20;2.33;;;;;;;15.57;100.00;101382.75;5012045;28;20485;-85
2023/09/23 10:53:11;;;;;;;7.40;2.65;;;;;;;15.50;100.00;101386.91;5021074;28;20026;-85
2023/09/23 10:55:36;;;;;;;6.35;2.28;;;;;;;15.43;100.00;101383.13;5026730;28;20390;-84
2023/09/23 10:58:02;;;;;;;8.68;2.95;;;;;;;15.42;100.00;101391.19;5031388;28;20018;-84
2023/09/23 11:00:33;;;;;;;9.07;2.70;;;;;;;15.37;100.00;101394.25;5031945;28;20030;-82
2023/09/23 11:03:14;;;;;;;7.05;2.83;;;;;;;15.33;100.00;101398.13;5031521;28;20025;-86
2023/09/23 11:05:39;;;;;;;7.93;2.45;;;;;;;15.30;100.00;101393.94;5029697;28;20025;-86
2023/09/23 11:08:13;;;;;;;8.43;2.80;;;;;;;15.31;100.00;101405.38;5031065;28;20109;-84
2023/09/23 11:10:42;;;;;;;11.02;3.15;;;;;;;15.40;100.00;101399.28;5032917;28;20107;-81
2023/09/23 11:13:10;;;;;;;8.80;3.25;;;;;;;15.66;100.00;101407.72;5010862;28;20030;-84